Time;durP1;ratioP1;P1;durP2;ratioP2;P2;SDS_P1;SDS_P2;PMS_P1;PMS_P2;Temp;Humidity;BMP_temperature;BMP_pressure;BME280_temperature;BME280_humidity;BME280_pressure;Samples;Min_cycle;Max_cycle;Signal;HPM_P1;HPM_P2
2022/07/26 00:00:25;;;;;;;7.90;3.58;;;;;;;-148.14;100.00;65945.72;5020177;28;20045;-83
2022/07/26 00:02:51;;;;;;;5.15;3.13;;;;;;;-148.14;100.00;65945.72;5024401;28;20034;-83
2022/07/26 00:05:17;;;;;;;6.43;3.13;;;;;;;-148.14;100.00;65945.72;5005381;28;20029;-82
2022/07/26 00:08:10;;;;;;;10.65;3.80;;;;;;;-148.14;100.00;65945.72;5019426;28;20048;-82
2022/07/26 00:10:43;;;;;;;9.68;3.28;;;;;;;-148.14;100.00;65945.72;5002170;28;20037;-83
2022/07/26 00:13:09;;;;;;;11.25;3.28;;;;;;;-148.14;100.00;65945.72;5001130;28;20022;-82
2022/07/26 00:15:35;;;;;;;8.55;3.50;;;;;;;-148.14;100.00;65945.72;4990235;28;20033;-82
2022/07/26 00:18:01;;;;;;;10.60;4.00;;;;;;;-148.14;100.00;65945.72;5002358;28;20111;-83
2022/07/26 00:20:28;;;;;;;7.55;3.70;;;;;;;-148.14;100.00;65945.72;5017439;28;20036;-82
2022/07/26 00:22:55;;;;;;;9.13;3.22;;;;;;;-148.14;100.00;65945.72;4991469;28;20456;-82
2022/07/26 00:25:23;;;;;;;12.32;4.57;;;;;;;-148.14;100.00;65945.72;4989329;28;20056;-83
2022/07/26 00:27:49;;;;;;;8.00;3.55;;;;;;;-148.14;100.00;65945.72;5018661;28;20030;-81
2022/07/26 00:30:14;;;;;;;8.35;3.15;;;;;;;-148.14;100.00;65945.72;5017897;28;20030;-81
2022/07/26 00:32:41;;;;;;;10.18;3.67;;;;;;;-148.14;100.00;65945.72;5019328;28;20403;-81
2022/07/26 00:35:07;;;;;;;10.35;3.83;;;;;;;-148.14;100.00;65945.72;5001705;28;20029;-82
2022/07/26 00:37:32;;;;;;;10.50;4.70;;;;;;;-148.14;100.00;65945.72;5023423;28;20032;-82
2022/07/26 00:39:58;;;;;;;11.50;3.78;;;;;;;-148.14;100.00;65945.72;5001419;28;20477;-82
2022/07/26 00:42:25;;;;;;;5.90;2.80;;;;;;;-148.14;100.00;65945.72;5004956;28;20025;-82
2022/07/26 00:44:50;;;;;;;6.63;3.15;;;;;;;-148.14;100.00;65945.72;5017596;28;20033;-82
2022/07/26 00:47:16;;;;;;;11.32;3.90;;;;;;;-148.14;100.00;65945.72;5020125;28;20025;-81
2022/07/26 00:49:43;;;;;;;15.90;4.07;;;;;;;-148.14;100.00;65945.72;4984953;28;20030;-81
2022/07/26 00:52:10;;;;;;;6.85;3.22;;;;;;;-148.14;100.00;65945.72;5004044;28;20490;-81
2022/07/26 00:54:36;;;;;;;10.23;3.58;;;;;;;-148.14;100.00;65945.72;5020621;28;20468;-82
2022/07/26 00:57:03;;;;;;;12.60;3.33;;;;;;;-148.14;100.00;65945.72;5008503;28;20083;-82
2022/07/26 00:59:28;;;;;;;10.23;3.72;;;;;;;-148.14;100.00;65945.72;5024977;28;20037;-82
2022/07/26 01:01:54;;;;;;;9.55;3.42;;;;;;;-148.14;100.00;65945.72;5023354;28;20107;-82
2022/07/26 01:04:20;;;;;;;11.23;3.60;;;;;;;-148.14;100.00;65945.72;5007869;28;20056;-81
2022/07/26 01:06:48;;;;;;;9.55;3.90;;;;;;;-148.14;100.00;65945.72;5021950;28;20034;-81
2022/07/26 01:09:15;;;;;;;10.23;4.00;;;;;;;-148.14;100.00;65945.72;5022832;28;20029;-82
2022/07/26 01:11:40;;;;;;;16.02;3.60;;;;;;;-148.14;100.00;65945.72;5026364;28;20521;-81
2022/07/26 01:14:06;;;;;;;10.02;3.08;;;;;;;-148.14;100.00;65945.72;5002432;28;20033;-81
2022/07/26 01:16:32;;;;;;;12.63;3.47;;;;;;;-148.14;100.00;65945.72;5023438;28;20038;-81
2022/07/26 01:18:57;;;;;;;12.15;3.90;;;;;;;-148.14;100.00;65945.72;4992859;28;20139;-81
2022/07/26 01:21:30;;;;;;;8.00;3.38;;;;;;;-148.14;100.00;65945.72;5007670;28;20025;-82
2022/07/26 01:23:55;;;;;;;9.13;3.72;;;;;;;-148.14;100.00;65945.72;5023835;28;20383;-82
2022/07/26 01:26:21;;;;;;;9.55;3.88;;;;;;;-148.14;100.00;65945.72;5023002;28;20112;-82
2022/07/26 01:28:48;;;;;;;13.23;3.60;;;;;;;-148.14;100.00;65945.72;5009315;28;20128;-82
2022/07/26 01:31:14;;;;;;;8.60;3.55;;;;;;;-148.14;100.00;65945.72;5022961;28;20029;-81
2022/07/26 01:33:40;;;;;;;18.70;4.90;;;;;;;-148.14;100.00;65945.72;5022614;28;20460;-81
2022/07/26 01:36:07;;;;;;;14.77;4.53;;;;;;;-148.14;100.00;65945.72;5019939;28;20044;-80
2022/07/26 01:38:32;;;;;;;10.18;4.13;;;;;;;-148.14;100.00;65945.72;5019682;28;20412;-81
2022/07/26 01:40:58;;;;;;;12.52;4.53;;;;;;;-148.14;100.00;65945.72;5022385;28;20025;-82
2022/07/26 01:43:24;;;;;;;10.38;3.92;;;;;;;-148.14;100.00;65945.72;5003193;28;20046;-82
2022/07/26 01:45:49;;;;;;;7.63;3.70;;;;;;;-148.14;100.00;65945.72;5004656;28;20064;-81
2022/07/26 01:48:15;;;;;;;11.02;4.05;;;;;;;-148.14;100.00;65945.72;5007884;28;20041;-81
2022/07/26 01:50:40;;;;;;;10.27;3.65;;;;;;;-148.14;100.00;65945.72;5004975;28;20034;-82
2022/07/26 01:53:06;;;;;;;7.72;3.60;;;;;;;-148.14;100.00;65945.72;4989838;28;20044;-81
2022/07/26 01:55:32;;;;;;;8.48;4.03;;;;;;;-148.14;100.00;65945.72;4989570;28;20046;-81
2022/07/26 01:57:57;;;;;;;11.15;3.88;;;;;;;-148.14;100.00;65945.72;5022240;28;20091;-82
2022/07/26 02:00:23;;;;;;;13.02;4.28;;;;;;;-148.14;100.00;65945.72;5023255;28;20156;-82
2022/07/26 02:02:48;;;;;;;8.55;3.75;;;;;;;-148.14;100.00;65945.72;5021084;28;20137;-82
2022/07/26 02:05:14;;;;;;;11.35;4.18;;;;;;;-148.14;100.00;65945.72;5004454;28;20071;-81
2022/07/26 02:07:42;;;;;;;12.90;4.05;;;;;;;-148.14;100.00;65945.72;5022149;28;20029;-82
2022/07/26 02:10:10;;;;;;;11.75;4.00;;;;;;;-148.14;100.00;65945.72;5022413;28;20523;-82
2022/07/26 02:12:36;;;;;;;11.38;3.97;;;;;;;-148.14;100.00;65945.72;5003181;28;20029;-82
2022/07/26 02:15:06;;;;;;;9.90;4.00;;;;;;;-148.14;100.00;65945.72;5019984;28;20037;-82
2022/07/26 02:17:32;;;;;;;9.25;3.85;;;;;;;-148.14;100.00;65945.72;4990970;28;20034;-82
2022/07/26 02:19:58;;;;;;;11.43;3.78;;;;;;;-148.14;100.00;65945.72;5024116;28;20464;-82
2022/07/26 02:22:24;;;;;;;11.38;4.05;;;;;;;-148.14;100.00;65945.72;4987394;28;20078;-83
2022/07/26 02:24:50;;;;;;;8.80;3.97;;;;;;;-148.14;100.00;65945.72;5006563;28;20033;-82
2022/07/26 02:27:16;;;;;;;8.43;3.72;;;;;;;-148.14;100.00;65945.72;5023390;28;20120;-82
2022/07/26 02:29:42;;;;;;;9.27;3.67;;;;;;;-148.14;100.00;65945.72;5023253;28;20061;-81
2022/07/26 02:32:08;;;;;;;13.90;3.70;;;;;;;-148.14;100.00;65945.72;4989169;28;20112;-81
2022/07/26 02:34:33;;;;;;;8.20;4.03;;;;;;;-148.14;100.00;65945.72;5023031;28;20061;-82
2022/07/26 02:36:59;;;;;;;12.30;3.75;;;;;;;-148.14;100.00;65945.72;5004074;28;20033;-83
2022/07/26 02:39:26;;;;;;;10.30;4.10;;;;;;;-148.14;100.00;65945.72;4988871;28;20085;-82
2022/07/26 02:41:54;;;;;;;8.07;3.40;;;;;;;-148.14;100.00;65945.72;5002355;28;20476;-82
2022/07/26 02:44:20;;;;;;;9.00;3.80;;;;;;;-148.14;100.00;65945.72;5022790;28;20041;-81
2022/07/26 02:46:46;;;;;;;13.23;3.90;;;;;;;-148.14;100.00;65945.72;5004231;28;20088;-81
2022/07/26 02:49:11;;;;;;;10.40;3.42;;;;;;;-148.14;100.00;65945.72;5007328;28;20033;-81
2022/07/26 02:51:37;;;;;;;13.45;3.55;;;;;;;-148.14;100.00;65945.72;5006575;28;20040;-82
2022/07/26 02:54:02;;;;;;;9.73;3.58;;;;;;;-148.14;100.00;65945.72;5003564;28;20032;-82
2022/07/26 02:56:28;;;;;;;12.27;3.65;;;;;;;-148.14;100.00;65945.72;4985541;28;20479;-81
2022/07/26 02:58:54;;;;;;;11.90;3.60;;;;;;;-148.14;100.00;65945.72;5022288;28;20064;-81
2022/07/26 03:01:19;;;;;;;9.15;3.63;;;;;;;-148.14;100.00;65945.72;5024330;28;20033;-81
2022/07/26 03:03:45;;;;;;;11.32;3.70;;;;;;;-148.14;100.00;65945.72;5005765;28;20030;-81
2022/07/26 03:06:11;;;;;;;7.53;3.28;;;;;;;-148.14;100.00;65945.72;5022697;28;20030;-83
2022/07/26 03:08:37;;;;;;;9.52;3.70;;;;;;;-148.14;100.00;65945.72;4987053;28;20506;-81
2022/07/26 03:11:03;;;;;;;11.30;3.30;;;;;;;-148.14;100.00;65945.72;5006312;28;20124;-83
2022/07/26 03:13:29;;;;;;;15.02;3.85;;;;;;;-148.14;100.00;65945.72;5022358;28;20380;-83
2022/07/26 03:15:55;;;;;;;14.98;3.65;;;;;;;-148.14;100.00;65945.72;5022913;28;20051;-82
2022/07/26 03:18:21;;;;;;;7.20;3.67;;;;;;;-148.14;100.00;65945.72;4988949;28;20031;-84
2022/07/26 03:20:47;;;;;;;9.70;3.78;;;;;;;-148.14;100.00;65945.72;4992460;28;20698;-84
2022/07/26 03:23:12;;;;;;;6.57;3.70;;;;;;;-148.14;100.00;65945.72;5030621;28;20036;-84
2022/07/26 03:25:38;;;;;;;9.63;3.30;;;;;;;-148.14;100.00;65945.72;5008767;28;20037;-84
2022/07/26 03:28:04;;;;;;;10.15;3.53;;;;;;;-148.14;100.00;65945.72;5002944;28;20029;-83
2022/07/26 03:30:29;;;;;;;11.35;4.10;;;;;;;-148.14;100.00;65945.72;5023959;28;20399;-83
2022/07/26 03:32:55;;;;;;;9.35;3.38;;;;;;;-148.14;100.00;65945.72;5028398;28;20030;-83
2022/07/26 03:35:21;;;;;;;13.55;3.60;;;;;;;-148.14;100.00;65945.72;5022022;28;20438;-83
2022/07/26 03:37:47;;;;;;;12.23;3.67;;;;;;;-148.14;100.00;65945.72;5023036;28;20496;-83
2022/07/26 03:40:14;;;;;;;12.38;3.95;;;;;;;-148.14;100.00;65945.72;5005172;28;20040;-84
2022/07/26 03:42:40;;;;;;;19.27;3.50;;;;;;;-148.14;100.00;65945.72;5024693;28;20041;-84
2022/07/26 03:45:06;;;;;;;10.90;3.70;;;;;;;-148.14;100.00;65945.72;5025083;28;20085;-83
2022/07/26 03:47:32;;;;;;;8.82;3.63;;;;;;;-148.14;100.00;65945.72;5021023;28;20490;-83
2022/07/26 03:49:57;;;;;;;11.30;3.67;;;;;;;-148.14;100.00;65945.72;5024275;28;20034;-84
2022/07/26 03:52:23;;;;;;;15.40;3.83;;;;;;;-148.14;100.00;65945.72;5024278;28;20030;-84
2022/07/26 03:54:49;;;;;;;17.67;4.25;;;;;;;-148.14;100.00;65945.72;4989033;28;20018;-82
2022/07/26 03:57:14;;;;;;;10.48;3.70;;;;;;;-148.14;100.00;65945.72;5021068;28;20045;-83
2022/07/26 03:59:40;;;;;;;8.63;3.83;;;;;;;-148.14;100.00;65945.72;5014339;28;20030;-83
2022/07/26 04:02:06;;;;;;;11.48;3.53;;;;;;;-148.14;100.00;65945.72;5022850;28;20091;-84
2022/07/26 04:04:31;;;;;;;11.73;3.28;;;;;;;-148.14;100.00;65945.72;5023380;28;20025;-83
2022/07/26 04:06:57;;;;;;;13.35;3.72;;;;;;;-148.14;100.00;65945.72;5020510;28;20061;-83
2022/07/26 04:09:22;;;;;;;8.23;3.47;;;;;;;-148.14;100.00;65945.72;5021316;28;20472;-82
2022/07/26 04:11:48;;;;;;;12.07;4.18;;;;;;;-148.14;100.00;65945.72;5024956;28;20533;-83
2022/07/26 04:14:14;;;;;;;9.57;3.65;;;;;;;-148.14;100.00;65945.72;5025425;28;20369;-84
2022/07/26 04:16:39;;;;;;;16.45;3.78;;;;;;;-148.14;100.00;65945.72;5004825;28;20487;-83
2022/07/26 04:19:05;;;;;;;11.30;3.08;;;;;;;-148.14;100.00;65945.72;5023654;28;20030;-83
2022/07/26 04:21:31;;;;;;;9.20;3.47;;;;;;;-148.14;100.00;65945.72;5022721;28;20092;-82
2022/07/26 04:23:57;;;;;;;8.10;3.53;;;;;;;-148.14;100.00;65945.72;5019406;28;20041;-83
2022/07/26 04:26:23;;;;;;;10.70;3.70;;;;;;;-148.14;100.00;65945.72;5002484;28;20484;-84
2022/07/26 04:28:49;;;;;;;7.75;3.28;;;;;;;-148.14;100.00;65945.72;5021992;28;20036;-83
2022/07/26 04:31:14;;;;;;;12.63;3.22;;;;;;;-148.14;100.00;65945.72;5027841;28;20038;-82
2022/07/26 04:33:43;;;;;;;9.73;3.30;;;;;;;-148.14;100.00;65945.72;5029199;28;20044;-83
2022/07/26 04:36:09;;;;;;;8.82;3.35;;;;;;;-148.14;100.00;65945.72;5044276;28;20093;-84
2022/07/26 04:38:34;;;;;;;11.82;3.55;;;;;;;-148.14;100.00;65945.72;5028257;28;20034;-84
2022/07/26 04:41:00;;;;;;;16.08;3.50;;;;;;;-148.14;100.00;65945.72;5016734;28;20010;-83
2022/07/26 04:43:26;;;;;;;13.43;3.40;;;;;;;-148.14;100.00;65945.72;5036511;28;20048;-84
2022/07/26 04:45:52;;;;;;;5.90;3.25;;;;;;;-148.14;100.00;65945.72;5034307;28;20146;-83
2022/07/26 04:48:17;;;;;;;11.00;4.53;;;;;;;-148.14;100.00;65945.72;5007509;28;20030;-83
2022/07/26 04:50:43;;;;;;;9.35;3.38;;;;;;;-148.14;100.00;65945.72;5010592;28;20060;-83
2022/07/26 04:53:12;;;;;;;11.93;3.10;;;;;;;-148.14;100.00;65945.72;5011976;28;21652;-83
2022/07/26 04:55:38;;;;;;;8.32;3.65;;;;;;;-148.14;100.00;65945.72;5026905;28;20037;-84
2022/07/26 04:58:04;;;;;;;12.60;3.38;;;;;;;-148.14;100.00;65945.72;5027490;28;20037;-84
2022/07/26 05:00:29;;;;;;;8.02;4.07;;;;;;;-148.14;100.00;65945.72;5007189;28;20045;-83
2022/07/26 05:02:58;;;;;;;9.75;3.33;;;;;;;-148.14;100.00;65945.72;5023472;28;20033;-84
2022/07/26 05:05:25;;;;;;;8.90;3.30;;;;;;;-148.14;100.00;65945.72;5029225;28;20038;-86
2022/07/26 05:07:53;;;;;;;12.30;4.03;;;;;;;-148.14;100.00;65945.72;5027243;28;20098;-83
2022/07/26 05:10:26;;;;;;;8.40;3.53;;;;;;;-148.14;100.00;65945.72;5025963;28;20026;-83
2022/07/26 05:12:51;;;;;;;10.10;3.58;;;;;;;-148.14;100.00;65945.72;5017389;28;20042;-84
2022/07/26 05:15:17;;;;;;;11.68;3.63;;;;;;;-148.14;100.00;65945.72;5012902;28;20087;-84
2022/07/26 05:17:43;;;;;;;8.73;3.30;;;;;;;-148.14;100.00;65945.72;5002458;28;20464;-84
2022/07/26 05:20:11;;;;;;;6.70;3.30;;;;;;;-148.14;100.00;65945.72;5023125;28;20061;-84
2022/07/26 05:22:37;;;;;;;10.77;4.00;;;;;;;-148.14;100.00;65945.72;5007952;28;20507;-83
2022/07/26 05:25:04;;;;;;;7.45;3.00;;;;;;;-148.14;100.00;65945.72;5024720;28;20026;-82
2022/07/26 05:27:30;;;;;;;18.08;4.25;;;;;;;-148.14;100.00;65945.72;5022556;28;20080;-83
2022/07/26 05:29:56;;;;;;;9.65;3.40;;;;;;;-148.14;100.00;65945.72;5022468;28;20029;-83
2022/07/26 05:32:22;;;;;;;10.82;4.00;;;;;;;-148.14;100.00;65945.72;5005888;28;20407;-84
2022/07/26 05:34:48;;;;;;;10.02;3.88;;;;;;;-148.14;100.00;65945.72;5007027;28;20034;-82
2022/07/26 05:37:13;;;;;;;14.95;3.72;;;;;;;-148.14;100.00;65945.72;5007055;28;20030;-83
2022/07/26 05:39:40;;;;;;;7.63;3.63;;;;;;;-148.14;100.00;65945.72;4988381;28;20454;-82
2022/07/26 05:42:06;;;;;;;11.10;3.65;;;;;;;-148.14;100.00;65945.72;5005457;28;20057;-84
2022/07/26 05:44:32;;;;;;;14.55;3.90;;;;;;;-148.14;100.00;65945.72;5003489;28;20119;-84
2022/07/26 05:46:57;;;;;;;15.45;3.75;;;;;;;-148.14;100.00;65945.72;5008695;28;20049;-83
2022/07/26 05:49:24;;;;;;;11.82;3.53;;;;;;;-148.14;100.00;65945.72;5027564;28;20051;-83
2022/07/26 05:51:51;;;;;;;11.02;3.03;;;;;;;-148.14;100.00;65945.72;5008784;28;20033;-83
2022/07/26 05:54:19;;;;;;;8.50;3.10;;;;;;;-148.14;100.00;65945.72;5027314;28;20500;-85
2022/07/26 05:56:45;;;;;;;11.20;3.15;;;;;;;-148.14;100.00;65945.72;4989322;28;20046;-83
2022/07/26 05:59:11;;;;;;;7.65;2.88;;;;;;;-148.14;100.00;65945.72;5022943;28;20361;-84
2022/07/26 06:01:36;;;;;;;8.98;2.97;;;;;;;-148.14;100.00;65945.72;5006174;28;20033;-84
2022/07/26 06:04:02;;;;;;;10.70;3.28;;;;;;;-148.14;100.00;65945.72;5022879;28;20041;-84
2022/07/26 06:06:28;;;;;;;9.25;2.90;;;;;;;-148.14;100.00;65945.72;5002959;28;20369;-85
2022/07/26 06:08:54;;;;;;;6.80;2.97;;;;;;;-148.14;100.00;65945.72;5005303;28;20072;-82
2022/07/26 06:11:20;;;;;;;12.02;3.50;;;;;;;-148.14;100.00;65945.72;5022829;28;20133;-84
2022/07/26 06:13:46;;;;;;;10.25;2.92;;;;;;;-148.14;100.00;65945.72;5025253;28;20025;-84
2022/07/26 06:16:12;;;;;;;13.98;3.50;;;;;;;-148.14;100.00;65945.72;5005761;28;20036;-84
2022/07/26 06:18:38;;;;;;;11.32;3.17;;;;;;;-148.14;100.00;65945.72;5022391;28;20441;-83
2022/07/26 06:21:04;;;;;;;11.63;3.55;;;;;;;-148.14;100.00;65945.72;5024360;28;20029;-84
2022/07/26 06:23:30;;;;;;;10.90;3.10;;;;;;;-148.14;100.00;65945.72;5019850;28;20818;-84
2022/07/26 06:25:56;;;;;;;13.23;3.85;;;;;;;-148.14;100.00;65945.72;5002604;28;20042;-84
2022/07/26 06:28:22;;;;;;;8.73;3.33;;;;;;;-148.14;100.00;65945.72;5025209;28;20518;-83
2022/07/26 06:30:48;;;;;;;11.90;3.50;;;;;;;-148.14;100.00;65945.72;5008463;28;20025;-83
2022/07/26 06:33:14;;;;;;;10.82;3.25;;;;;;;-148.14;100.00;65945.72;5023881;28;20026;-82
2022/07/26 06:35:41;;;;;;;13.43;3.00;;;;;;;-148.14;100.00;65945.72;5023921;28;20041;-87
2022/07/26 06:38:07;;;;;;;8.35;3.20;;;;;;;-148.14;100.00;65945.72;5023566;28;20034;-84
2022/07/26 06:40:33;;;;;;;10.38;3.17;;;;;;;-148.14;100.00;65945.72;5010175;28;20521;-84
2022/07/26 06:43:00;;;;;;;7.45;2.67;;;;;;;-148.14;100.00;65945.72;5009026;28;20064;-84
2022/07/26 06:45:27;;;;;;;10.80;3.40;;;;;;;-148.14;100.00;65945.72;5005628;28;20488;-84
2022/07/26 06:47:53;;;;;;;7.85;3.15;;;;;;;-148.14;100.00;65945.72;5007490;28;20072;-83
2022/07/26 06:50:18;;;;;;;15.35;3.53;;;;;;;-148.14;100.00;65945.72;5027595;28;20048;-83
2022/07/26 06:52:44;;;;;;;8.27;3.25;;;;;;;-148.14;100.00;65945.72;5023441;28;20048;-84
2022/07/26 06:55:11;;;;;;;8.25;2.90;;;;;;;-148.14;100.00;65945.72;5020107;28;20026;-84
2022/07/26 06:57:37;;;;;;;7.45;3.30;;;;;;;-148.14;100.00;65945.72;5034369;28;20033;-84
2022/07/26 07:00:04;;;;;;;7.78;2.90;;;;;;;-148.14;100.00;65945.72;5025694;28;20033;-84
2022/07/26 07:02:30;;;;;;;8.52;2.88;;;;;;;-148.14;100.00;65945.72;5028575;28;20171;-85
2022/07/26 07:04:55;;;;;;;9.77;3.25;;;;;;;-148.14;100.00;65945.72;5020752;28;20458;-85
2022/07/26 07:07:21;;;;;;;8.15;3.00;;;;;;;-148.14;100.00;65945.72;5026288;28;20040;-85
2022/07/26 07:09:47;;;;;;;13.25;3.65;;;;;;;-148.14;100.00;65945.72;4986011;28;20205;-85
2022/07/26 07:12:14;;;;;;;9.35;3.90;;;;;;;-148.14;100.00;65945.72;5004294;28;20117;-84
2022/07/26 07:14:40;;;;;;;9.10;2.85;;;;;;;-148.14;100.00;65945.72;5020120;28;20120;-87
2022/07/26 07:17:06;;;;;;;11.60;3.70;;;;;;;-148.14;100.00;65945.72;5009580;28;20451;-86
2022/07/26 07:19:35;;;;;;;16.23;3.65;;;;;;;-148.14;100.00;65945.72;5026275;28;20053;-86
2022/07/26 07:22:02;;;;;;;7.65;3.47;;;;;;;-148.14;100.00;65945.72;5002045;28;20029;-87
2022/07/26 07:24:30;;;;;;;7.40;3.00;;;;;;;-148.14;100.00;65945.72;5022425;28;20123;-88
2022/07/26 07:26:55;;;;;;;7.28;3.25;;;;;;;-148.14;100.00;65945.72;5019623;28;20121;-88
2022/07/26 07:29:21;;;;;;;9.43;3.50;;;;;;;-148.14;100.00;65945.72;5020944;28;20061;-84
2022/07/26 07:31:47;;;;;;;7.28;3.35;;;;;;;-148.14;100.00;65945.72;5022832;28;20112;-86
2022/07/26 07:34:14;;;;;;;11.50;4.07;;;;;;;-148.14;100.00;65945.72;5018261;28;20080;-82
2022/07/26 07:36:40;;;;;;;13.55;4.05;;;;;;;-148.14;100.00;65945.72;5019404;28;20029;-89
2022/07/26 07:39:05;;;;;;;5.53;3.80;;;;;;;-148.14;100.00;65945.72;5002193;28;20033;-84
2022/07/26 07:41:33;;;;;;;10.10;4.60;;;;;;;-148.14;100.00;65945.72;5021179;28;20473;-87
2022/07/26 07:44:01;;;;;;;8.05;4.00;;;;;;;-148.14;100.00;65945.72;5023839;28;20450;-90
2022/07/26 07:46:27;;;;;;;13.38;4.13;;;;;;;-148.14;100.00;65945.72;4980445;28;20112;-87
2022/07/26 07:48:53;;;;;;;9.25;4.07;;;;;;;-148.14;100.00;65945.72;4989728;28;20060;-86
2022/07/26 07:51:19;;;;;;;9.32;4.75;;;;;;;-148.14;100.00;65945.72;5003885;28;20048;-85
2022/07/26 07:53:44;;;;;;;8.98;3.95;;;;;;;-148.14;100.00;65945.72;5022431;28;20519;-85
2022/07/26 07:56:10;;;;;;;13.05;3.95;;;;;;;-148.14;100.00;65945.72;5002906;28;20033;-87
2022/07/26 07:58:35;;;;;;;9.65;5.07;;;;;;;-148.14;100.00;65945.72;5015254;28;20399;-87
2022/07/26 08:01:01;;;;;;;9.93;4.35;;;;;;;-148.14;100.00;65945.72;5027458;28;20475;-88
2022/07/26 08:03:27;;;;;;;10.93;5.65;;;;;;;-148.14;100.00;65945.72;5024120;28;20558;-87
2022/07/26 08:05:52;;;;;;;12.20;5.22;;;;;;;-148.14;100.00;65945.72;5031189;28;20040;-88
2022/07/26 08:08:19;;;;;;;10.18;4.60;;;;;;;-148.14;100.00;65945.72;5033417;28;20048;-88
2022/07/26 08:10:44;;;;;;;5.90;4.13;;;;;;;-148.14;100.00;65945.72;5022844;28;20042;-88
2022/07/26 08:13:10;;;;;;;9.85;4.80;;;;;;;-148.14;100.00;65945.72;5012444;28;20028;-87
2022/07/26 08:15:36;;;;;;;10.07;5.30;;;;;;;-148.14;100.00;65945.72;5037095;28;20479;-89
2022/07/26 08:18:02;;;;;;;6.15;4.63;;;;;;;-148.14;100.00;65945.72;5017830;28;20040;-89
2022/07/26 08:20:27;;;;;;;10.90;4.70;;;;;;;-148.14;100.00;65945.72;5011148;28;20466;-87
2022/07/26 08:22:53;;;;;;;6.60;3.83;;;;;;;-148.14;100.00;65945.72;5027970;28;20037;-88
2022/07/26 08:25:19;;;;;;;7.22;2.83;;;;;;;-148.14;100.00;65945.72;4998747;28;20029;-89
2022/07/26 08:27:44;;;;;;;5.63;3.28;;;;;;;-148.14;100.00;65945.72;5025330;28;20471;-88
2022/07/26 08:30:10;;;;;;;7.72;2.97;;;;;;;-148.14;100.00;65945.72;5011959;28;20125;-88
2022/07/26 08:32:36;;;;;;;7.07;3.03;;;;;;;-148.14;100.00;65945.72;5022521;28;20138;-87
2022/07/26 08:35:02;;;;;;;7.82;3.38;;;;;;;-148.14;100.00;65945.72;5009760;28;20556;-88
2022/07/26 08:37:28;;;;;;;7.72;2.95;;;;;;;-148.14;100.00;65945.72;5032894;28;20108;-88
2022/07/26 08:39:53;;;;;;;6.22;2.95;;;;;;;-148.14;100.00;65945.72;5026338;28;20124;-86
2022/07/26 08:42:23;;;;;;;13.43;3.08;;;;;;;-148.14;100.00;65945.72;4991187;28;20029;-89
2022/07/26 08:44:49;;;;;;;8.05;2.90;;;;;;;-148.14;100.00;65945.72;5012658;28;20048;-89
2022/07/26 08:47:17;;;;;;;5.63;2.55;;;;;;;-148.14;100.00;65945.72;5029039;28;20071;-83
2022/07/26 08:49:44;;;;;;;6.57;2.40;;;;;;;-148.14;100.00;65945.72;5012595;28;20102;-83
2022/07/26 08:52:11;;;;;;;5.43;2.28;;;;;;;-148.14;100.00;65945.72;4988611;28;20373;-86
2022/07/26 08:54:42;;;;;;;5.13;2.30;;;;;;;-148.14;100.00;65945.72;5015442;28;20180;-86
2022/07/26 08:57:08;;;;;;;7.07;2.83;;;;;;;-148.14;100.00;65945.72;4986680;28;20038;-85
2022/07/26 08:59:33;;;;;;;8.15;2.78;;;;;;;-148.14;100.00;65945.72;5008169;28;20041;-85
2022/07/26 09:02:02;;;;;;;9.27;3.10;;;;;;;-148.14;100.00;65945.72;5001572;28;20451;-85
2022/07/26 09:04:39;;;;;;;5.93;2.60;;;;;;;-148.14;100.00;65945.72;5024100;28;20377;-85
2022/07/26 09:07:10;;;;;;;10.38;2.85;;;;;;;-148.14;100.00;65945.72;5008043;28;20025;-85
2022/07/26 09:09:57;;;;;;;5.65;2.65;;;;;;;-148.14;100.00;65945.72;5011968;28;20026;-85
2022/07/26 09:12:24;;;;;;;5.32;2.30;;;;;;;-148.14;100.00;65945.72;5000599;28;20435;-83
2022/07/26 09:14:51;;;;;;;5.30;2.45;;;;;;;-148.14;100.00;65945.72;5020722;28;20080;-86
2022/07/26 09:17:18;;;;;;;9.23;2.80;;;;;;;-148.14;100.00;65945.72;5018172;28;20109;-86
2022/07/26 09:20:13;;;;;;;4.28;2.20;;;;;;;-148.14;100.00;65945.72;5021511;28;20113;-84
2022/07/26 09:22:58;;;;;;;4.82;2.20;;;;;;;-148.14;100.00;65945.72;5019819;28;20044;-85
2022/07/26 09:25:26;;;;;;;4.72;2.38;;;;;;;-148.14;100.00;65945.72;5030566;28;20033;-84
2022/07/26 09:27:52;;;;;;;5.18;2.38;;;;;;;-148.14;100.00;65945.72;5031449;28;20575;-86
2022/07/26 09:30:18;;;;;;;4.90;2.30;;;;;;;-148.14;100.00;65945.72;5026466;28;20076;-85
2022/07/26 09:32:59;;;;;;;3.17;2.05;;;;;;;-148.14;100.00;65945.72;5035487;28;20041;-86
2022/07/26 09:35:27;;;;;;;3.90;2.00;;;;;;;-148.14;100.00;65945.72;5028883;28;20112;-85
2022/07/26 09:37:52;;;;;;;2.90;1.85;;;;;;;-148.14;100.00;65945.72;5004017;28;20037;-85
2022/07/26 09:40:18;;;;;;;3.58;2.28;;;;;;;-148.14;100.00;65945.72;5025150;28;20045;-86
2022/07/26 09:42:59;;;;;;;2.50;1.98;;;;;;;-148.14;100.00;65945.72;5022202;28;20498;-83
2022/07/26 09:45:26;;;;;;;2.85;1.50;;;;;;;-148.14;100.00;65945.72;5026373;28;20115;-85
2022/07/26 09:47:52;;;;;;;2.85;1.70;;;;;;;-148.14;100.00;65945.72;5023195;28;20479;-84
2022/07/26 09:50:20;;;;;;;2.95;1.98;;;;;;;-148.14;100.00;65945.72;5022564;28;20117;-84
2022/07/26 09:53:06;;;;;;;3.15;1.83;;;;;;;-148.14;100.00;65945.72;5005485;28;20053;-83
2022/07/26 09:55:33;;;;;;;5.15;1.88;;;;;;;-148.14;100.00;65945.72;5023014;28;20033;-84
2022/07/26 09:58:02;;;;;;;3.78;1.73;;;;;;;-148.14;100.00;65945.72;5019462;28;20120;-85
2022/07/26 10:00:32;;;;;;;7.20;2.30;;;;;;;-148.14;100.00;65945.72;5018189;28;20026;-83
2022/07/26 10:03:00;;;;;;;4.75;2.08;;;;;;;-148.14;100.00;65945.72;5024445;28;20030;-84
2022/07/26 10:05:26;;;;;;;2.50;2.00;;;;;;;-148.14;100.00;65945.72;5024523;28;20048;-83
2022/07/26 10:07:52;;;;;;;5.05;2.42;;;;;;;-148.14;100.00;65945.72;5019120;28;20120;-85
2022/07/26 10:10:29;;;;;;;5.53;2.08;;;;;;;-148.14;100.00;65945.72;5023474;28;20033;-84
2022/07/26 10:12:55;;;;;;;3.90;2.05;;;;;;;-148.14;100.00;65945.72;5003237;28;20613;-84
2022/07/26 10:15:33;;;;;;;4.32;2.22;;;;;;;-148.14;100.00;65945.72;5032854;28;20075;-83
2022/07/26 10:17:59;;;;;;;4.38;2.15;;;;;;;-148.14;100.00;65945.72;5027366;28;20029;-84
2022/07/26 10:20:41;;;;;;;4.20;1.77;;;;;;;-148.14;100.00;65945.72;5006842;28;20029;-85
2022/07/26 10:23:32;;;;;;;5.43;2.30;;;;;;;-148.14;100.00;65945.72;5030187;28;20034;-83
2022/07/26 10:25:57;;;;;;;3.35;1.85;;;;;;;-148.14;100.00;65945.72;5025469;28;20026;-84
2022/07/26 10:28:28;;;;;;;2.85;2.03;;;;;;;-148.14;100.00;65945.72;5026923;28;20044;-84
2022/07/26 10:31:30;;;;;;;3.50;2.08;;;;;;;-148.14;100.00;65945.72;5020368;28;20025;-83
2022/07/26 10:33:58;;;;;;;4.30;2.10;;;;;;;-148.14;100.00;65945.72;5022290;28;20088;-83
2022/07/26 10:36:28;;;;;;;4.80;2.40;;;;;;;-148.14;100.00;65945.72;5022864;28;20030;-84
2022/07/26 10:39:06;;;;;;;5.80;2.42;;;;;;;-148.14;100.00;65945.72;5004434;28;20054;-82
2022/07/26 10:41:39;;;;;;;6.07;2.33;;;;;;;-148.14;100.00;65945.72;5022424;28;20022;-84
2022/07/26 10:44:20;;;;;;;3.85;2.40;;;;;;;-148.14;100.00;65945.72;5019583;28;20416;-84
2022/07/26 10:47:06;;;;;;;7.35;2.45;;;;;;;-148.14;100.00;65945.72;5023028;28;20121;-83
2022/07/26 10:49:55;;;;;;;5.13;2.47;;;;;;;-148.14;100.00;65945.72;5006904;28;20029;-82
2022/07/26 10:52:26;;;;;;;4.70;2.22;;;;;;;-148.14;100.00;65945.72;5022756;28;20091;-83
2022/07/26 10:54:58;;;;;;;5.05;2.58;;;;;;;-148.14;100.00;65945.72;5014387;28;20088;-83
2022/07/26 10:57:30;;;;;;;7.97;2.90;;;;;;;-148.14;100.00;65945.72;5021967;28;20150;-83
2022/07/26 10:59:56;;;;;;;6.28;2.78;;;;;;;-148.14;100.00;65945.72;5019538;28;20499;-83
2022/07/26 11:02:34;;;;;;;7.05;3.00;;;;;;;-148.14;100.00;65945.72;5021084;28;20430;-82
2022/07/26 11:05:15;;;;;;;12.90;3.03;;;;;;;-148.14;100.00;65945.72;5027366;28;20484;-82
2022/07/26 11:07:51;;;;;;;6.88;2.85;;;;;;;-148.14;100.00;65945.72;5021288;28;20388;-82